Terminal Aerodrome Forecast
Issued by NWS

Home | Current Version | Previous Version | Text Only | Print | Product List | Glossary On
Versions: 1 2 3 4 5 6 7 8 9 10 11 12 13 14 15 16 17 18 19 20 21 22 23 24 25 26 27 28 29 30 31 32 33 34 35 36 37 38 39 40 41 42 43 44 45 46 47 48 49 50
000
FTUS46 KEKA 181137
TAFACV
TAF
KACV 181137Z 1812/1912 15008KT P6SM BKN035
     FM190200 16010G18KT 6SM -RA BR SCT035 OVC050
     FM190600 16010G18KT 4SM RA BKN030 OVC040
     FM191000 19007KT 6SM -SHRA SCT030 BKN040=

USA.gov is the U.S. government's official web portal to all federal, state and local government web resources and services.